Time;durP1;ratioP1;P1;durP2;ratioP2;P2;SDS_P1;SDS_P2;PMS_P1;PMS_P2;Temp;Humidity;BMP_temperature;BMP_pressure;BME280_temperature;BME280_humidity;BME280_pressure;Samples;Min_cycle;Max_cycle;Signal;HPM_P1;HPM_P2
2022/08/04 00:02:12;;;;;;;10.75;3.20;;;;;;;;;;4983092;28;20558;-77
2022/08/04 00:04:43;;;;;;;3.95;3.17;;;;;;;;;;5008225;28;20050;-76
2022/08/04 00:07:15;;;;;;;6.38;2.90;;;;;;;;;;5008586;28;20046;-77
2022/08/04 00:09:42;;;;;;;6.13;3.17;;;;;;;;;;5010747;28;20084;-77
2022/08/04 00:12:10;;;;;;;6.95;3.33;;;;;;;;;;5011777;28;20081;-78
2022/08/04 00:14:40;;;;;;;4.65;2.67;;;;;;;;;;5013115;28;20054;-78
2022/08/04 00:17:07;;;;;;;4.90;3.05;;;;;;;;;;5027837;28;20140;-77
2022/08/04 00:19:39;;;;;;;6.30;2.80;;;;;;;;;;5014151;28;20049;-78
2022/08/04 00:22:08;;;;;;;7.35;3.05;;;;;;;;;;5034324;28;20049;-76
2022/08/04 00:24:35;;;;;;;4.57;3.17;;;;;;;;;;5034092;28;20068;-77
2022/08/04 00:27:02;;;;;;;8.80;3.47;;;;;;;;;;5035016;28;20136;-78
2022/08/04 00:29:29;;;;;;;4.18;2.80;;;;;;;;;;5034361;28;20458;-78
2022/08/04 00:31:56;;;;;;;6.65;2.80;;;;;;;;;;5014387;28;20311;-77
2022/08/04 00:34:27;;;;;;;4.65;3.00;;;;;;;;;;5032570;28;20759;-78
2022/08/04 00:36:54;;;;;;;4.45;3.25;;;;;;;;;;5035115;28;20045;-78
2022/08/04 00:39:21;;;;;;;4.47;3.30;;;;;;;;;;5035220;28;20057;-77
2022/08/04 00:41:48;;;;;;;3.92;3.00;;;;;;;;;;5035888;28;20068;-77
2022/08/04 00:44:28;;;;;;;6.20;3.08;;;;;;;;;;5036348;28;20041;-78
2022/08/04 00:47:13;;;;;;;7.15;3.00;;;;;;;;;;5035727;28;20081;-78
2022/08/04 00:49:49;;;;;;;7.63;3.37;;;;;;;;;;5034699;28;20096;-77
2022/08/04 00:52:15;;;;;;;6.70;2.92;;;;;;;;;;5034556;28;20375;-77
2022/08/04 00:55:18;;;;;;;6.65;3.00;;;;;;;;;;5004013;28;20078;-78
2022/08/04 00:57:51;;;;;;;4.45;3.03;;;;;;;;;;4997157;28;20078;-78
2022/08/04 01:00:18;;;;;;;5.35;3.13;;;;;;;;;;4996848;28;20051;-77
2022/08/04 01:02:44;;;;;;;8.30;3.50;;;;;;;;;;4995012;28;20054;-78
2022/08/04 01:05:20;;;;;;;5.63;3.40;;;;;;;;;;4993684;28;20142;-78
2022/08/04 01:08:05;;;;;;;6.90;2.95;;;;;;;;;;4994345;28;20050;-78
2022/08/04 01:10:57;;;;;;;6.53;3.15;;;;;;;;;;4994849;28;20054;-77
2022/08/04 01:13:42;;;;;;;8.00;3.00;;;;;;;;;;4993810;28;20057;-78
2022/08/04 01:16:12;;;;;;;4.55;3.00;;;;;;;;;;4994399;28;20129;-78
2022/08/04 01:18:53;;;;;;;5.15;2.95;;;;;;;;;;4994065;28;20046;-77
2022/08/04 01:21:29;;;;;;;3.75;2.70;;;;;;;;;;4993186;28;20084;-77
2022/08/04 01:24:14;;;;;;;5.78;3.03;;;;;;;;;;4994231;28;20092;-78
2022/08/04 01:26:41;;;;;;;5.65;2.92;;;;;;;;;;4994739;28;20105;-77
2022/08/04 01:29:25;;;;;;;5.07;2.70;;;;;;;;;;4995739;28;20050;-77
2022/08/04 01:32:26;;;;;;;4.22;2.95;;;;;;;;;;4993211;28;20057;-78
2022/08/04 01:34:56;;;;;;;7.18;3.08;;;;;;;;;;4994564;28;20141;-78
2022/08/04 01:37:44;;;;;;;4.82;3.10;;;;;;;;;;4976865;28;20077;-78
2022/08/04 01:40:12;;;;;;;6.97;3.50;;;;;;;;;;4994354;28;20042;-77
2022/08/04 01:42:40;;;;;;;5.38;3.50;;;;;;;;;;4994558;28;20073;-77
2022/08/04 01:45:08;;;;;;;5.95;3.30;;;;;;;;;;4996011;28;20058;-77
2022/08/04 01:47:35;;;;;;;7.15;3.30;;;;;;;;;;4996467;28;20488;-78
2022/08/04 01:50:06;;;;;;;4.78;3.10;;;;;;;;;;4993536;28;20507;-77
2022/08/04 01:52:34;;;;;;;6.75;2.95;;;;;;;;;;4995040;28;20574;-77
2022/08/04 01:55:01;;;;;;;4.15;3.10;;;;;;;;;;5013134;28;20519;-77
2022/08/04 01:57:28;;;;;;;5.32;3.20;;;;;;;;;;5019029;28;20144;-77
2022/08/04 02:00:05;;;;;;;5.35;3.38;;;;;;;;;;5020708;28;20101;-77
2022/08/04 02:02:32;;;;;;;9.15;3.22;;;;;;;;;;5011558;28;20050;-78
2022/08/04 02:04:59;;;;;;;4.15;3.00;;;;;;;;;;5012009;28;20046;-77
2022/08/04 02:07:32;;;;;;;9.68;3.72;;;;;;;;;;5011226;28;20446;-77
2022/08/04 02:10:06;;;;;;;4.05;3.17;;;;;;;;;;5011720;28;20523;-78
2022/08/04 02:12:32;;;;;;;5.00;3.13;;;;;;;;;;5011262;28;20053;-78
2022/08/04 02:15:02;;;;;;;7.22;3.30;;;;;;;;;;5011288;28;20077;-77
2022/08/04 02:17:50;;;;;;;5.70;3.13;;;;;;;;;;5011965;28;20145;-78
2022/08/04 02:20:33;;;;;;;8.35;3.45;;;;;;;;;;5009813;28;20134;-77
2022/08/04 02:23:04;;;;;;;3.80;3.08;;;;;;;;;;5010265;28;20042;-77
2022/08/04 02:25:38;;;;;;;5.03;2.92;;;;;;;;;;5010018;28;20084;-77
2022/08/04 02:28:04;;;;;;;4.03;3.25;;;;;;;;;;5010732;28;20046;-77
2022/08/04 02:30:39;;;;;;;5.78;3.20;;;;;;;;;;5009032;28;20140;-76
2022/08/04 02:33:06;;;;;;;5.32;3.13;;;;;;;;;;5009712;28;20716;-77
2022/08/04 02:35:37;;;;;;;5.45;2.92;;;;;;;;;;5009947;28;20132;-77
2022/08/04 02:38:10;;;;;;;4.53;3.38;;;;;;;;;;5009382;28;20089;-78
2022/08/04 02:40:38;;;;;;;6.65;3.58;;;;;;;;;;5010628;28;20120;-77
2022/08/04 02:43:05;;;;;;;6.55;3.33;;;;;;;;;;5019445;28;20034;-76
2022/08/04 02:45:34;;;;;;;4.03;3.08;;;;;;;;;;5035895;28;20045;-76
2022/08/04 02:48:01;;;;;;;6.13;3.60;;;;;;;;;;5031131;28;20491;-77
2022/08/04 02:50:49;;;;;;;5.57;3.30;;;;;;;;;;5008936;28;20046;-77
2022/08/04 02:53:20;;;;;;;6.72;3.55;;;;;;;;;;5008876;28;20073;-77
2022/08/04 02:55:47;;;;;;;7.25;3.78;;;;;;;;;;5010282;28;20085;-77
2022/08/04 02:58:19;;;;;;;8.23;3.72;;;;;;;;;;5010628;28;20046;-77
2022/08/04 03:00:49;;;;;;;4.40;3.55;;;;;;;;;;5009734;28;20085;-77
2022/08/04 03:03:40;;;;;;;5.35;3.95;;;;;;;;;;5009718;28;20082;-77
2022/08/04 03:06:10;;;;;;;5.57;4.18;;;;;;;;;;5009936;28;20049;-77
2022/08/04 03:08:55;;;;;;;5.57;3.75;;;;;;;;;;5010627;28;20054;-77
2022/08/04 03:11:24;;;;;;;6.35;3.70;;;;;;;;;;5009225;28;20141;-77
2022/08/04 03:14:17;;;;;;;5.22;3.50;;;;;;;;;;5010888;28;20447;-77
2022/08/04 03:17:02;;;;;;;5.95;3.78;;;;;;;;;;4986860;28;20129;-78
2022/08/04 03:19:35;;;;;;;7.60;3.80;;;;;;;;;;5008142;28;20155;-77
2022/08/04 03:22:25;;;;;;;8.77;4.13;;;;;;;;;;5009191;28;20108;-77
2022/08/04 03:25:03;;;;;;;6.65;3.72;;;;;;;;;;5003084;28;20169;-76
2022/08/04 03:27:39;;;;;;;9.65;3.90;;;;;;;;;;5007828;28;20046;-77
2022/08/04 03:30:17;;;;;;;6.93;4.03;;;;;;;;;;5008766;28;20108;-77
2022/08/04 03:32:50;;;;;;;5.03;3.80;;;;;;;;;;5008210;28;20116;-77
2022/08/04 03:35:31;;;;;;;7.63;4.20;;;;;;;;;;5008570;28;20601;-78
2022/08/04 03:38:18;;;;;;;5.35;3.83;;;;;;;;;;5008740;28;20141;-78
2022/08/04 03:40:47;;;;;;;6.03;4.07;;;;;;;;;;4998384;28;20198;-77
2022/08/04 03:43:20;;;;;;;8.05;3.90;;;;;;;;;;5010322;28;20097;-78
2022/08/04 03:46:16;;;;;;;9.25;4.00;;;;;;;;;;5010536;28;20064;-77
2022/08/04 03:49:18;;;;;;;6.32;3.97;;;;;;;;;;5009665;28;20073;-77
2022/08/04 03:54:48;;;;;;;10.25;3.90;;;;;;;;;;5007866;28;20380;-78
2022/08/04 03:57:24;;;;;;;5.63;3.88;;;;;;;;;;5010083;28;20133;-77
2022/08/04 03:59:50;;;;;;;;;;;;;;;;;;5010761;28;20075;-77
2022/08/04 04:02:29;;;;;;;6.13;3.80;;;;;;;;;;5008075;28;20378;-77
2022/08/04 04:05:25;;;;;;;7.28;4.15;;;;;;;;;;5008828;28;20069;-77
2022/08/04 04:07:57;;;;;;;7.28;3.88;;;;;;;;;;5009423;28;20050;-77
2022/08/04 04:10:30;;;;;;;8.82;3.53;;;;;;;;;;5010053;28;20076;-77
2022/08/04 04:13:15;;;;;;;9.20;4.07;;;;;;;;;;5010330;28;20478;-77
2022/08/04 04:15:47;;;;;;;7.30;3.92;;;;;;;;;;5009095;28;20165;-76
2022/08/04 04:18:25;;;;;;;6.10;3.97;;;;;;;;;;5008440;28;20068;-77
2022/08/04 04:21:10;;;;;;;6.72;4.10;;;;;;;;;;5007343;28;20081;-77
2022/08/04 04:23:55;;;;;;;6.97;3.60;;;;;;;;;;5008359;28;20094;-77
2022/08/04 04:26:22;;;;;;;9.48;4.38;;;;;;;;;;5008443;28;20056;-77
2022/08/04 04:28:56;;;;;;;7.57;4.28;;;;;;;;;;5009043;28;20069;-77
2022/08/04 04:31:32;;;;;;;5.05;3.47;;;;;;;;;;5007905;28;20050;-77
2022/08/04 04:34:20;;;;;;;14.88;4.43;;;;;;;;;;5008150;28;20137;-76
2022/08/04 04:36:46;;;;;;;9.07;3.83;;;;;;;;;;5008146;28;20140;-77
2022/08/04 04:39:16;;;;;;;5.93;4.00;;;;;;;;;;5007748;28;20070;-77
2022/08/04 04:42:04;;;;;;;6.43;3.78;;;;;;;;;;5006086;28;20131;-77
2022/08/04 04:44:34;;;;;;;5.18;3.47;;;;;;;;;;5008432;28;20050;-77
2022/08/04 04:47:06;;;;;;;5.45;3.67;;;;;;;;;;5007408;28;20172;-76
2022/08/04 04:49:56;;;;;;;6.80;3.97;;;;;;;;;;5008534;28;20104;-78
2022/08/04 04:52:22;;;;;;;5.38;3.88;;;;;;;;;;4989205;28;20153;-77
2022/08/04 04:54:52;;;;;;;7.55;3.78;;;;;;;;;;5009021;28;20076;-77
2022/08/04 04:57:19;;;;;;;7.32;3.22;;;;;;;;;;5008952;28;20300;-78
2022/08/04 05:00:08;;;;;;;7.75;3.78;;;;;;;;;;5009460;28;20426;-77
2022/08/04 05:02:53;;;;;;;5.85;3.70;;;;;;;;;;5007659;28;20132;-77
2022/08/04 05:05:29;;;;;;;7.57;3.25;;;;;;;;;;5010362;28;20046;-78
2022/08/04 05:08:14;;;;;;;4.40;3.30;;;;;;;;;;5012467;28;20142;-77
2022/08/04 05:11:03;;;;;;;6.63;3.47;;;;;;;;;;5011998;28;20061;-77
2022/08/04 05:13:35;;;;;;;7.60;3.35;;;;;;;;;;5013059;28;20148;-77
2022/08/04 05:16:35;;;;;;;5.00;2.70;;;;;;;;;;5013884;28;20085;-77
2022/08/04 05:19:28;;;;;;;7.55;2.72;;;;;;;;;;5012789;28;20096;-77
2022/08/04 05:22:00;;;;;;;7.30;2.50;;;;;;;;;;5010340;28;20141;-78
2022/08/04 05:24:27;;;;;;;6.55;2.42;;;;;;;;;;5012324;28;20145;-78
2022/08/04 05:27:02;;;;;;;9.50;2.60;;;;;;;;;;5013825;28;20176;-77
2022/08/04 05:29:33;;;;;;;5.70;2.58;;;;;;;;;;5012291;28;20050;-77
2022/08/04 05:32:09;;;;;;;4.47;2.45;;;;;;;;;;5009727;28;20061;-77
2022/08/04 05:34:41;;;;;;;4.80;3.00;;;;;;;;;;5010496;28;20667;-77
2022/08/04 05:37:09;;;;;;;7.15;3.15;;;;;;;;;;5011286;28;20073;-78
2022/08/04 05:39:38;;;;;;;5.60;2.70;;;;;;;;;;5010173;28;20498;-77
2022/08/04 05:42:04;;;;;;;7.25;2.00;;;;;;;;;;5010494;28;20085;-78
2022/08/04 05:44:33;;;;;;;5.65;2.33;;;;;;;;;;5011773;28;20264;-76
2022/08/04 05:47:01;;;;;;;8.85;2.80;;;;;;;;;;5010630;28;20407;-77
2022/08/04 05:49:28;;;;;;;7.35;2.30;;;;;;;;;;5009100;28;20144;-76
2022/08/04 05:51:59;;;;;;;4.68;2.30;;;;;;;;;;5008485;28;20089;-77
2022/08/04 05:54:32;;;;;;;2.95;1.63;;;;;;;;;;5012019;28;20084;-78
2022/08/04 05:56:59;;;;;;;5.60;1.83;;;;;;;;;;5014460;28;20081;-78
2022/08/04 05:59:26;;;;;;;3.83;2.00;;;;;;;;;;5024526;28;20098;-75
2022/08/04 06:01:55;;;;;;;3.70;1.88;;;;;;;;;;5035203;28;20049;-77
2022/08/04 06:04:39;;;;;;;4.45;1.80;;;;;;;;;;5031797;28;20053;-78
2022/08/04 06:07:06;;;;;;;10.55;2.33;;;;;;;;;;5011832;28;20137;-78
2022/08/04 06:09:33;;;;;;;6.68;2.60;;;;;;;;;;5010942;28;20087;-75
2022/08/04 06:12:01;;;;;;;5.30;2.30;;;;;;;;;;5009822;28;20578;-78
2022/08/04 06:14:35;;;;;;;3.25;1.85;;;;;;;;;;4993583;28;20046;-77
2022/08/04 06:17:05;;;;;;;5.13;2.10;;;;;;;;;;4992576;28;20189;-77
2022/08/04 06:19:52;;;;;;;4.57;1.95;;;;;;;;;;5009791;28;20046;-78
2022/08/04 06:22:40;;;;;;;7.00;2.30;;;;;;;;;;5008999;28;20550;-77
2022/08/04 06:25:08;;;;;;;8.18;2.30;;;;;;;;;;5009662;28;20573;-77
2022/08/04 06:27:35;;;;;;;5.45;1.92;;;;;;;;;;4994120;28;20111;-77
2022/08/04 06:30:02;;;;;;;2.70;1.70;;;;;;;;;;5012206;28;20103;-78
2022/08/04 06:32:35;;;;;;;4.85;1.90;;;;;;;;;;5010058;28;20547;-77
2022/08/04 06:35:10;;;;;;;7.00;1.90;;;;;;;;;;5011231;28;20072;-76
2022/08/04 06:37:36;;;;;;;5.18;2.03;;;;;;;;;;5009244;28;20135;-77
2022/08/04 06:40:09;;;;;;;5.40;1.70;;;;;;;;;;5010047;28;20046;-77
2022/08/04 06:42:56;;;;;;;3.40;1.35;;;;;;;;;;5010600;28;20084;-78
2022/08/04 06:45:23;;;;;;;3.42;1.42;;;;;;;;;;5012709;28;20137;-78
2022/08/04 06:47:50;;;;;;;3.78;1.30;;;;;;;;;;5012420;28;20077;-78
2022/08/04 06:50:18;;;;;;;5.90;1.48;;;;;;;;;;5007841;28;20045;-78
2022/08/04 06:53:04;;;;;;;3.35;1.48;;;;;;;;;;5009109;28;20058;-78
2022/08/04 06:55:33;;;;;;;7.53;1.75;;;;;;;;;;5010130;28;20056;-77
2022/08/04 06:58:00;;;;;;;3.20;1.30;;;;;;;;;;5009907;28;20046;-77
2022/08/04 07:00:29;;;;;;;2.28;1.30;;;;;;;;;;5010385;28;20294;-78
2022/08/04 07:02:56;;;;;;;3.72;1.42;;;;;;;;;;5013680;28;20085;-78
2022/08/04 07:05:23;;;;;;;5.63;1.50;;;;;;;;;;5013352;28;20153;-77
2022/08/04 07:07:49;;;;;;;4.75;1.50;;;;;;;;;;5012586;28;20485;-77
2022/08/04 07:10:26;;;;;;;3.20;1.27;;;;;;;;;;5019374;28;20049;-77
2022/08/04 07:12:54;;;;;;;3.67;1.55;;;;;;;;;;5016071;28;20080;-77
2022/08/04 07:15:21;;;;;;;2.60;1.38;;;;;;;;;;5010640;28;20081;-77
2022/08/04 07:17:51;;;;;;;2.13;1.45;;;;;;;;;;5010171;28;20077;-77
2022/08/04 07:20:18;;;;;;;5.85;1.25;;;;;;;;;;5008012;28;20054;-77
2022/08/04 07:23:04;;;;;;;1.77;1.30;;;;;;;;;;5008332;28;20049;-77
2022/08/04 07:25:32;;;;;;;2.72;1.40;;;;;;;;;;5012338;28;20046;-76
2022/08/04 07:28:19;;;;;;;2.88;1.23;;;;;;;;;;5009199;28;20218;-78
2022/08/04 07:30:46;;;;;;;4.60;1.40;;;;;;;;;;5008335;28;20151;-77
2022/08/04 07:33:13;;;;;;;1.48;1.15;;;;;;;;;;5008658;28;20137;-78
2022/08/04 07:35:40;;;;;;;2.95;1.23;;;;;;;;;;5010230;28;20140;-78
2022/08/04 07:38:26;;;;;;;2.72;1.33;;;;;;;;;;5008882;28;20076;-78
2022/08/04 07:40:53;;;;;;;4.85;1.30;;;;;;;;;;5008896;28;20050;-78
2022/08/04 07:43:20;;;;;;;4.13;1.40;;;;;;;;;;5009446;28;20046;-78
2022/08/04 07:45:46;;;;;;;2.85;1.35;;;;;;;;;;5009396;28;20069;-78
2022/08/04 07:48:14;;;;;;;3.45;1.20;;;;;;;;;;5009033;28;20110;-77
2022/08/04 07:50:41;;;;;;;3.20;1.40;;;;;;;;;;5008826;28;20140;-77
2022/08/04 07:53:08;;;;;;;2.88;1.27;;;;;;;;;;5007958;28;20054;-77
2022/08/04 07:55:54;;;;;;;1.92;1.13;;;;;;;;;;5008730;28;20054;-78
2022/08/04 07:58:21;;;;;;;3.42;1.35;;;;;;;;;;5008760;28;20092;-77
2022/08/04 08:00:47;;;;;;;7.13;1.20;;;;;;;;;;5008542;28;20495;-78
2022/08/04 08:03:15;;;;;;;5.22;1.50;;;;;;;;;;5008448;28;20050;-78
2022/08/04 08:05:46;;;;;;;5.63;1.30;;;;;;;;;;5008283;28;20561;-77
2022/08/04 08:08:36;;;;;;;3.65;1.40;;;;;;;;;;5008358;28;20053;-78
2022/08/04 08:11:03;;;;;;;2.30;1.27;;;;;;;;;;5008182;28;20056;-78
2022/08/04 08:13:29;;;;;;;3.42;1.50;;;;;;;;;;5009481;28;20057;-78
2022/08/04 08:15:59;;;;;;;2.03;1.38;;;;;;;;;;5009963;28;20060;-77
2022/08/04 08:18:26;;;;;;;3.90;1.20;;;;;;;;;;5008835;28;20136;-77
2022/08/04 08:20:52;;;;;;;4.78;1.40;;;;;;;;;;5008220;28;20212;-77
2022/08/04 08:23:19;;;;;;;3.20;1.50;;;;;;;;;;5008085;28;20057;-77
2022/08/04 08:25:47;;;;;;;2.28;1.38;;;;;;;;;;5008878;28;20054;-78
2022/08/04 08:28:17;;;;;;;1.77;1.33;;;;;;;;;;5011433;28;20049;-77
2022/08/04 08:30:43;;;;;;;4.07;1.40;;;;;;;;;;5009060;28;20112;-78
2022/08/04 08:33:12;;;;;;;5.65;1.52;;;;;;;;;;5008583;28;20489;-78
2022/08/04 08:35:48;;;;;;;1.90;1.40;;;;;;;;;;5010089;28;20133;-77
2022/08/04 08:38:26;;;;;;;3.13;1.23;;;;;;;;;;5009145;28;20045;-78
2022/08/04 08:40:54;;;;;;;4.43;1.40;;;;;;;;;;5011479;28;20228;-77
2022/08/04 08:43:23;;;;;;;2.47;1.27;;;;;;;;;;5014139;28;20073;-77
2022/08/04 08:46:28;;;;;;;2.95;1.27;;;;;;;;;;5013592;28;20491;-77
2022/08/04 08:49:17;;;;;;;6.70;1.60;;;;;;;;;;5012376;28;20046;-78
2022/08/04 08:52:13;;;;;;;3.88;1.30;;;;;;;;;;5011900;28;20054;-78
2022/08/04 08:55:05;;;;;;;3.85;1.42;;;;;;;;;;5008260;28;20057;-78
2022/08/04 08:57:59;;;;;;;3.78;1.30;;;;;;;;;;4975253;28;20077;-77
2022/08/04 09:00:26;;;;;;;1.60;1.23;;;;;;;;;;4992628;28;20054;-77
2022/08/04 09:02:57;;;;;;;1.95;1.30;;;;;;;;;;4991428;28;20043;-77
2022/08/04 09:05:36;;;;;;;4.05;1.33;;;;;;;;;;4991627;28;20046;-76
2022/08/04 09:08:32;;;;;;;5.20;1.10;;;;;;;;;;4991845;28;20043;-77
2022/08/04 09:11:11;;;;;;;3.40;1.30;;;;;;;;;;4905251;28;20582;-77
2022/08/04 09:13:40;;;;;;;1.38;1.00;;;;;;;;;;4975655;28;20137;-77
2022/08/04 09:16:25;;;;;;;2.47;1.35;;;;;;;;;;5003139;28;20046;-77
2022/08/04 09:18:52;;;;;;;3.85;1.50;;;;;;;;;;5016681;28;20049;-77
2022/08/04 09:21:24;;;;;;;3.28;1.40;;;;;;;;;;4990916;28;20065;-77
2022/08/04 09:24:09;;;;;;;2.35;1.17;;;;;;;;;;4992543;28;20122;-77
2022/08/04 09:26:58;;;;;;;3.05;1.50;;;;;;;;;;4992164;28;20054;-77
2022/08/04 09:29:34;;;;;;;5.53;1.20;;;;;;;;;;4991929;28;20515;-77
2022/08/04 09:32:01;;;;;;;;;;;;;;;;;;4992310;28;20491;-77
2022/08/04 09:34:32;;;;;;;7.18;1.38;;;;;;;;;;4990934;28;19926;-77
2022/08/04 09:37:03;;;;;;;5.13;1.25;;;;;;;;;;4974591;28;20062;-77
2022/08/04 09:39:38;;;;;;;5.47;1.38;;;;;;;;;;4991330;28;20495;-78
2022/08/04 09:42:28;;;;;;;2.40;1.33;;;;;;;;;;4974674;28;20050;-76
2022/08/04 09:45:06;;;;;;;3.00;1.30;;;;;;;;;;4992364;28;20058;-77
2022/08/04 09:47:46;;;;;;;2.72;1.40;;;;;;;;;;4991162;28;20054;-77
2022/08/04 09:50:13;;;;;;;3.75;1.25;;;;;;;;;;4991162;28;20129;-78
2022/08/04 09:52:48;;;;;;;6.68;1.50;;;;;;;;;;4991705;28;20073;-77
2022/08/04 09:55:37;;;;;;;3.97;1.50;;;;;;;;;;5011195;28;20081;-77
2022/08/04 09:58:25;;;;;;;3.67;1.27;;;;;;;;;;5012417;28;20050;-77
2022/08/04 10:01:01;;;;;;;4.30;1.30;;;;;;;;;;5010737;28;20077;-77
2022/08/04 10:03:32;;;;;;;5.55;1.70;;;;;;;;;;5009764;28;20046;-77
2022/08/04 10:12:55;;;;;;;3.65;1.33;;;;;;;;;;5012366;28;20085;-76
2022/08/04 10:15:40;;;;;;;3.53;1.40;;;;;;;;;;5011617;28;20459;-78
2022/08/04 10:18:07;;;;;;;;;;;;;;;;;;5011115;28;20145;-78
2022/08/04 10:20:39;;;;;;;2.45;1.58;;;;;;;;;;5010173;28;20375;-78
2022/08/04 10:23:28;;;;;;;2.25;1.50;;;;;;;;;;5009935;28;20283;-77
2022/08/04 10:26:14;;;;;;;2.38;1.60;;;;;;;;;;5009885;28;20085;-77
2022/08/04 10:28:45;;;;;;;2.58;1.50;;;;;;;;;;5010700;28;20141;-78
2022/08/04 10:31:15;;;;;;;3.25;1.42;;;;;;;;;;5009985;28;20537;-77
2022/08/04 10:33:48;;;;;;;2.45;1.63;;;;;;;;;;5010283;28;20132;-77
2022/08/04 10:36:16;;;;;;;1.98;1.50;;;;;;;;;;5009558;28;20068;-77
2022/08/04 10:38:55;;;;;;;4.20;1.60;;;;;;;;;;5009400;28;20112;-77
2022/08/04 10:41:38;;;;;;;3.25;1.40;;;;;;;;;;5009927;28;20053;-78
2022/08/04 10:44:12;;;;;;;5.70;1.58;;;;;;;;;;5011858;28;20050;-77
2022/08/04 10:46:45;;;;;;;5.73;1.73;;;;;;;;;;5012934;28;20132;-78
2022/08/04 10:49:34;;;;;;;2.53;1.60;;;;;;;;;;5019083;28;20534;-78
2022/08/04 10:52:07;;;;;;;6.55;1.50;;;;;;;;;;5012520;28;20081;-77
2022/08/04 10:54:56;;;;;;;3.08;1.58;;;;;;;;;;5015045;28;20115;-77
2022/08/04 10:57:34;;;;;;;1.77;1.60;;;;;;;;;;5015005;28;20045;-78
2022/08/04 11:00:09;;;;;;;3.00;1.60;;;;;;;;;;5013930;28;20140;-77
2022/08/04 11:02:41;;;;;;;2.90;1.52;;;;;;;;;;5012185;28;20085;-77
2022/08/04 11:05:11;;;;;;;2.45;1.52;;;;;;;;;;5013061;28;20049;-77
2022/08/04 11:07:39;;;;;;;3.08;1.50;;;;;;;;;;5015202;28;20219;-77
2022/08/04 11:10:06;;;;;;;2.60;1.50;;;;;;;;;;5015339;28;20078;-78
2022/08/04 11:12:33;;;;;;;8.38;1.70;;;;;;;;;;5015186;28;20060;-78
2022/08/04 11:15:05;;;;;;;2.47;1.63;;;;;;;;;;5018352;28;20058;-76
2022/08/04 11:17:34;;;;;;;1.92;1.60;;;;;;;;;;5011654;28;20136;-76
2022/08/04 11:20:10;;;;;;;2.10;1.63;;;;;;;;;;5013058;28;20085;-77
2022/08/04 11:22:56;;;;;;;;;;;;;;;;;;5008984;28;20050;-77
2022/08/04 11:25:34;;;;;;;7.20;1.90;;;;;;;;;;5010243;28;19987;-77
2022/08/04 11:28:18;;;;;;;2.25;2.00;;;;;;;;;;5012185;28;20045;-77
2022/08/04 11:30:57;;;;;;;4.93;1.95;;;;;;;;;;5010318;28;20129;-77
2022/08/04 11:33:42;;;;;;;6.15;1.88;;;;;;;;;;5009430;28;20081;-77
2022/08/04 11:36:15;;;;;;;2.15;1.80;;;;;;;;;;5009663;28;20053;-78
2022/08/04 11:39:01;;;;;;;2.85;1.90;;;;;;;;;;5011097;28;20073;-77
2022/08/04 11:41:53;;;;;;;2.47;1.73;;;;;;;;;;5011088;28;20140;-77
2022/08/04 11:44:27;;;;;;;2.75;1.73;;;;;;;;;;4981210;28;20343;-77
2022/08/04 11:46:54;;;;;;;;;;;;;;;;;;5010436;28;20085;-79
2022/08/04 11:49:32;;;;;;;4.63;2.17;;;;;;;;;;5009921;28;19926;-78
2022/08/04 11:52:20;;;;;;;8.02;1.80;;;;;;;;;;5008949;28;20046;-77
2022/08/04 11:54:48;;;;;;;3.92;1.70;;;;;;;;;;5003786;28;20153;-78
2022/08/04 11:57:20;;;;;;;3.25;2.20;;;;;;;;;;5010257;28;20076;-78
2022/08/04 11:59:54;;;;;;;3.80;1.98;;;;;;;;;;5009916;28;20486;-78
2022/08/04 12:02:29;;;;;;;3.35;2.42;;;;;;;;;;5009684;28;20527;-78
2022/08/04 12:04:57;;;;;;;6.63;2.35;;;;;;;;;;5010100;28;20049;-78
2022/08/04 12:07:32;;;;;;;2.92;2.30;;;;;;;;;;5011230;28;20080;-78
2022/08/04 12:10:24;;;;;;;8.07;2.30;;;;;;;;;;5011961;28;20049;-79
2022/08/04 12:13:12;;;;;;;4.72;2.17;;;;;;;;;;5011193;28;20303;-78
2022/08/04 12:15:48;;;;;;;2.75;2.30;;;;;;;;;;5014317;28;20137;-79
2022/08/04 12:18:15;;;;;;;2.15;2.05;;;;;;;;;;5015058;28;20495;-78
2022/08/04 12:20:48;;;;;;;5.70;2.35;;;;;;;;;;5013367;28;20422;-78
2022/08/04 12:23:20;;;;;;;5.50;2.60;;;;;;;;;;5014582;28;20350;-78
2022/08/04 12:25:51;;;;;;;5.18;2.40;;;;;;;;;;5016251;28;20133;-78
2022/08/04 12:28:22;;;;;;;2.88;2.58;;;;;;;;;;5017006;28;20133;-78
2022/08/04 12:30:51;;;;;;;5.03;2.65;;;;;;;;;;5018710;28;20050;-77
2022/08/04 12:33:34;;;;;;;4.18;2.40;;;;;;;;;;5031645;28;20085;-78
2022/08/04 12:36:26;;;;;;;2.50;2.30;;;;;;;;;;5036783;28;20044;-78
2022/08/04 12:39:07;;;;;;;3.15;2.20;;;;;;;;;;5014902;28;20349;-77
2022/08/04 12:41:53;;;;;;;4.25;2.30;;;;;;;;;;5011996;28;20469;-77
2022/08/04 12:44:19;;;;;;;6.38;2.30;;;;;;;;;;5012760;28;20168;-77
2022/08/04 12:47:04;;;;;;;3.53;2.38;;;;;;;;;;5012366;28;20513;-78
2022/08/04 12:49:54;;;;;;;2.35;2.15;;;;;;;;;;5013056;28;20423;-77
2022/08/04 12:52:27;;;;;;;3.22;2.42;;;;;;;;;;5011850;28;20157;-77
2022/08/04 12:55:13;;;;;;;5.47;2.40;;;;;;;;;;5013449;28;20050;-77
2022/08/04 12:57:41;;;;;;;6.85;2.20;;;;;;;;;;5013617;28;20488;-77
2022/08/04 13:00:08;;;;;;;2.40;2.20;;;;;;;;;;5015077;28;20050;-77
2022/08/04 13:02:44;;;;;;;2.67;2.40;;;;;;;;;;5013863;28;20128;-77
2022/08/04 13:05:12;;;;;;;2.97;2.50;;;;;;;;;;5013069;28;20053;-77
2022/08/04 13:07:49;;;;;;;4.68;2.40;;;;;;;;;;5012725;28;20057;-77
2022/08/04 13:10:16;;;;;;;4.60;2.23;;;;;;;;;;5011295;28;20395;-77
2022/08/04 13:12:51;;;;;;;5.40;2.47;;;;;;;;;;5012512;28;20301;-77
2022/08/04 13:15:20;;;;;;;2.65;2.30;;;;;;;;;;5012392;28;20088;-77
2022/08/04 13:17:49;;;;;;;5.53;2.70;;;;;;;;;;5011552;28;20081;-77
2022/08/04 13:20:22;;;;;;;5.68;2.50;;;;;;;;;;5012214;28;20077;-77
2022/08/04 13:22:49;;;;;;;2.90;2.30;;;;;;;;;;5011189;28;20487;-77
2022/08/04 13:25:18;;;;;;;5.35;2.35;;;;;;;;;;5013732;28;20053;-78
2022/08/04 13:28:05;;;;;;;5.35;2.45;;;;;;;;;;5012954;28;20144;-77
2022/08/04 13:30:32;;;;;;;2.50;2.30;;;;;;;;;;5011690;28;20073;-77
2022/08/04 13:33:00;;;;;;;4.80;2.38;;;;;;;;;;5012071;28;20288;-76
2022/08/04 13:35:27;;;;;;;3.50;2.53;;;;;;;;;;5013100;28;20498;-76
2022/08/04 13:38:16;;;;;;;7.85;2.55;;;;;;;;;;5011576;28;20046;-77
2022/08/04 13:40:43;;;;;;;5.65;2.33;;;;;;;;;;5011502;28;20058;-77
2022/08/04 13:43:20;;;;;;;3.95;2.47;;;;;;;;;;5011740;28;20073;-78
2022/08/04 13:46:08;;;;;;;5.95;2.55;;;;;;;;;;5013320;28;20054;-76
2022/08/04 13:48:38;;;;;;;3.65;2.50;;;;;;;;;;5011914;28;20081;-76
2022/08/04 13:51:06;;;;;;;2.45;2.25;;;;;;;;;;5009825;28;20137;-76
2022/08/04 13:53:32;;;;;;;7.82;2.60;;;;;;;;;;5003778;28;20074;-79
2022/08/04 13:56:00;;;;;;;2.35;2.15;;;;;;;;;;5011466;28;20081;-76
2022/08/04 13:58:28;;;;;;;5.70;2.17;;;;;;;;;;5012046;28;20124;-77
2022/08/04 14:01:04;;;;;;;2.20;1.90;;;;;;;;;;5010831;28;20050;-76
2022/08/04 14:03:39;;;;;;;3.70;1.80;;;;;;;;;;5011309;28;20076;-76
2022/08/04 14:06:23;;;;;;;6.75;2.10;;;;;;;;;;5012069;28;20133;-78
2022/08/04 14:09:18;;;;;;;7.55;2.13;;;;;;;;;;5012855;28;20110;-77
2022/08/04 14:11:47;;;;;;;5.18;1.98;;;;;;;;;;5002348;28;20125;-78
2022/08/04 14:14:34;;;;;;;3.65;1.75;;;;;;;;;;5012064;28;20057;-76
2022/08/04 14:17:11;;;;;;;4.90;1.92;;;;;;;;;;5012094;28;20100;-75
2022/08/04 14:19:46;;;;;;;5.30;2.08;;;;;;;;;;5012961;28;20053;-77
2022/08/04 14:22:25;;;;;;;2.80;2.10;;;;;;;;;;5011510;28;20049;-77
2022/08/04 14:25:15;;;;;;;3.15;2.15;;;;;;;;;;5011296;28;20057;-78
2022/08/04 14:27:42;;;;;;;5.93;2.40;;;;;;;;;;5007772;28;20057;-78
2022/08/04 14:30:23;;;;;;;7.93;2.38;;;;;;;;;;5014567;28;20097;-77
2022/08/04 14:32:54;;;;;;;2.72;2.38;;;;;;;;;;5011281;28;20419;-77
2022/08/04 14:35:23;;;;;;;3.53;2.40;;;;;;;;;;5013173;28;20046;-77
2022/08/04 14:38:10;;;;;;;7.45;2.47;;;;;;;;;;5009537;28;20081;-78
2022/08/04 14:40:37;;;;;;;5.28;2.15;;;;;;;;;;5010364;28;20060;-76
2022/08/04 14:43:04;;;;;;;2.83;1.92;;;;;;;;;;5010569;28;20077;-77
2022/08/04 14:45:36;;;;;;;3.35;2.00;;;;;;;;;;5012758;28;20064;-78
2022/08/04 14:48:06;;;;;;;7.38;1.90;;;;;;;;;;5011792;28;20085;-78
2022/08/04 14:50:46;;;;;;;3.08;1.70;;;;;;;;;;5008393;28;20131;-77
2022/08/04 14:53:28;;;;;;;3.47;2.13;;;;;;;;;;5010030;28;20099;-77
2022/08/04 14:55:55;;;;;;;3.70;2.00;;;;;;;;;;5009809;28;20154;-77
2022/08/04 14:58:25;;;;;;;3.03;1.98;;;;;;;;;;5011458;28;20046;-77
2022/08/04 15:01:03;;;;;;;4.85;1.70;;;;;;;;;;5010194;28;20137;-77
2022/08/04 15:03:39;;;;;;;2.70;1.90;;;;;;;;;;5009727;28;20565;-77
2022/08/04 15:06:22;;;;;;;2.83;1.90;;;;;;;;;;5009999;28;20049;-77
2022/08/04 15:08:50;;;;;;;6.55;1.88;;;;;;;;;;5009749;28;20084;-77
2022/08/04 15:11:16;;;;;;;4.05;1.85;;;;;;;;;;5009546;28;20050;-78
2022/08/04 15:13:49;;;;;;;2.97;2.00;;;;;;;;;;5010459;28;20042;-78
2022/08/04 15:16:15;;;;;;;4.07;2.10;;;;;;;;;;5013589;28;20103;-78
2022/08/04 15:18:42;;;;;;;3.63;1.80;;;;;;;;;;5011020;28;20085;-78
2022/08/04 15:21:14;;;;;;;4.80;2.00;;;;;;;;;;5009850;28;20074;-78
2022/08/04 15:23:41;;;;;;;3.35;2.15;;;;;;;;;;5011907;28;20060;-77
2022/08/04 15:26:12;;;;;;;4.70;2.55;;;;;;;;;;5011646;28;20099;-78
2022/08/04 15:28:39;;;;;;;4.10;2.10;;;;;;;;;;5010528;28;20124;-78
2022/08/04 15:31:07;;;;;;;2.38;2.10;;;;;;;;;;5010799;28;20096;-78
2022/08/04 15:33:54;;;;;;;4.65;2.22;;;;;;;;;;5015839;28;20126;-79
2022/08/04 15:36:29;;;;;;;2.38;2.03;;;;;;;;;;5014627;28;20085;-78
2022/08/04 15:39:11;;;;;;;3.58;2.08;;;;;;;;;;5012818;28;20050;-79
2022/08/04 15:42:04;;;;;;;4.03;2.00;;;;;;;;;;5014553;28;20050;-78